Main page
METAR-TAF:

METAR-TAF

Airports :

Dax, France

Aérodrome de Dax - Seyresse

latitude: 43-41N, longitude: 001-04W, elevation: 32 m

Current weather observation

The report was made 38 minutes ago, at 01:30 UTC
Wind 6 kt from the West, varying between Southwest and Northwest
Temperature 18°C
Humidity 88%
Pressure 1013 hPa
Visibility: 8000 m
Overcast at a height of 700 ft

METAR: LFBY 290130Z AUTO 26006KT 230V310 8000 // OVC007 18/16 Q1013

Time: 04:08 (02:08 UTC)


TAF: missing

Weather observations and forecasts of more than 4000 airports (METAR and TAF reports).

The available stations are represented by yellow and red dots on the map.

Hover mouse over dot to see the name of the station.

Then click to see weather observations and forecasts.

To change the map : click on the green buttons with a black cross to zoom in, on the green button with a dash to zoom out, or on the green arrows for adjacent maps.


METAR-TAF: